Iepe, Brazil
Current Conditions -  °F | °C
As of 12:00 PM on Thursday 23 Oct 2014 (Local Time) from SBDN Reporting Station
Clear Clear  
Wind Chill: 84°   Ceiling: Unl
Heat Index: 84°   Visibility: 6mi
Dew Point: 59°   Wind: 13mph
Humidity: 42%   Direction: 70°ENE
Pressure: 30.06"   Gusts: NA
Location:  22.64°S, 51.11°W
Report Text: SBDN 231400Z 07011KT CAVOK 29/15 Q1018
Loading
Personal Weather Stations






























Interactive Weather Map
Tropical Storm Tracking
New forecast layout! Learn more

10-Day Weather Forecast

Advertisements
Track Severe Weather on mobile